TimePDT,TemperatureF,Dew PointF,Humidity,Sea Level PressureIn,VisibilityMPH,Wind Direction,Wind SpeedMPH,Gust SpeedMPH,PrecipitationIn,Events,Conditions,WindDirDegrees,DateUTC
12:53 AM,61.0,55.9,83,29.85,10.0,Calm,Calm,-,N/A,,Clear,0,2013-07-16 07:53:00
1:53 AM,60.1,55.0,83,29.84,10.0,Calm,Calm,-,N/A,,Clear,0,2013-07-16 08:53:00
2:53 AM,57.9,54.0,87,29.84,9.0,Calm,Calm,-,N/A,,Clear,0,2013-07-16 09:53:00
3:53 AM,57.9,54.0,87,29.84,9.0,Calm,Calm,-,N/A,,Clear,0,2013-07-16 10:53:00
4:53 AM,57.0,53.1,87,29.84,9.0,Calm,Calm,-,N/A,,Clear,0,2013-07-16 11:53:00
5:53 AM,55.9,52.0,87,29.87,9.0,Calm,Calm,-,N/A,,Clear,0,2013-07-16 12:53:00
6:53 AM,59.0,54.0,83,29.88,9.0,Calm,Calm,-,N/A,,Clear,0,2013-07-16 13:53:00
7:53 AM,66.9,55.9,68,29.89,10.0,Calm,Calm,-,N/A,,Clear,0,2013-07-16 14:53:00
8:53 AM,73.9,57.0,55,29.90,10.0,Variable,3.5,-,N/A,,Clear,0,2013-07-16 15:53:00
9:53 AM,79.0,57.9,48,29.90,10.0,NW,6.9,-,N/A,,Clear,310,2013-07-16 16:53:00
10:53 AM,82.9,57.0,41,29.91,10.0,WNW,10.4,-,N/A,,Clear,300,2013-07-16 17:53:00
11:53 AM,87.1,51.1,29,29.90,10.0,WNW,8.1,-,N/A,,Clear,300,2013-07-16 18:53:00
12:53 PM,89.1,46.0,22,29.90,10.0,WNW,8.1,-,N/A,,Clear,300,2013-07-16 19:53:00
1:53 PM,89.1,48.0,24,29.90,10.0,West,10.4,-,N/A,,Clear,260,2013-07-16 20:53:00
2:53 PM,87.1,46.0,24,29.90,10.0,West,15.0,-,N/A,,Clear,260,2013-07-16 21:53:00
3:53 PM,86.0,46.0,25,29.90,10.0,West,16.1,-,N/A,,Clear,270,2013-07-16 22:53:00
4:53 PM,84.9,35.1,17,29.90,10.0,WNW,10.4,-,N/A,,Clear,290,2013-07-16 23:53:00
5:53 PM,82.9,43.0,24,29.89,10.0,West,10.4,-,N/A,,Clear,270,2013-07-17 00:53:00
6:53 PM,79.0,48.0,34,29.91,10.0,West,8.1,-,N/A,,Clear,270,2013-07-17 01:53:00
7:53 PM,71.1,53.1,53,29.92,10.0,West,6.9,-,N/A,,Clear,270,2013-07-17 02:53:00
8:53 PM,66.9,53.1,61,29.95,10.0,WNW,3.5,-,N/A,,Clear,290,2013-07-17 03:53:00
9:53 PM,63.0,53.1,70,29.97,10.0,NW,3.5,-,N/A,,Clear,320,2013-07-17 04:53:00
10:53 PM,60.1,51.1,72,29.97,10.0,Calm,Calm,-,N/A,,Clear,0,2013-07-17 05:53:00
11:53 PM,60.1,50.0,69,29.97,10.0,NE,3.5,-,N/A,,Clear,50,2013-07-17 06:53:00